Time;durP1;ratioP1;P1;durP2;ratioP2;P2;SDS_P1;SDS_P2;PMS_P1;PMS_P2;Temp;Humidity;BMP_temperature;BMP_pressure;BME280_temperature;BME280_humidity;BME280_pressure;Samples;Min_cycle;Max_cycle;Signal;HPM_P1;HPM_P2
2023/09/10 00:06:21;;;;;;;19.00;16.60;;;;;;;16.97;69.80;100389.28;30968474;28;97315;-62
2023/09/10 00:21:21;;;;;;;30.08;25.98;;;;;;;16.66;70.66;100398.75;30965455;28;117443;-62
2023/09/10 00:36:21;;;;;;;21.00;16.48;;;;;;;16.62;71.31;100392.97;30965171;28;97154;-62
2023/09/10 00:51:22;;;;;;;20.85;16.98;;;;;;;16.46;71.57;100399.53;30962274;28;97511;-62
2023/09/10 01:06:22;;;;;;;17.45;15.63;;;;;;;16.35;72.49;100398.28;30962640;28;97158;-62
2023/09/10 01:21:40;;;;;;;21.23;16.13;;;;;;;16.28;72.69;100412.72;30961308;28;97317;-63
2023/09/10 01:36:45;;;;;;;25.17;16.13;;;;;;;16.11;72.79;100396.97;30978868;28;97615;-62
2023/09/10 01:51:45;;;;;;;17.17;15.17;;;;;;;15.95;73.16;100402.69;30980275;28;96709;-65
2023/09/10 02:06:45;;;;;;;19.83;16.10;;;;;;;15.82;73.74;100401.59;30979296;28;112688;-65
2023/09/10 02:21:46;;;;;;;21.17;16.20;;;;;;;15.65;74.17;100398.41;30978328;28;108920;-62
2023/09/10 02:36:46;;;;;;;23.02;17.20;;;;;;;15.46;74.25;100389.22;30975853;28;96696;-62
2023/09/10 02:51:48;;;;;;;21.00;18.08;;;;;;;15.18;75.07;100392.72;30974375;28;101287;-63
2023/09/10 03:06:50;;;;;;;24.20;18.93;;;;;;;15.05;75.57;100381.94;30972900;28;97148;-62
2023/09/10 03:21:50;;;;;;;24.37;19.37;;;;;;;14.86;75.88;100368.16;30971776;28;98000;-62
2023/09/10 03:36:50;;;;;;;23.35;18.55;;;;;;;14.79;76.39;100358.38;30967603;28;112759;-64
2023/09/10 03:51:51;;;;;;;22.67;19.40;;;;;;;14.72;76.74;100344.91;30965805;28;102694;-61
2023/09/10 04:06:52;;;;;;;23.70;19.03;;;;;;;14.69;77.16;100342.63;30966250;28;96723;-65
2023/09/10 04:21:52;;;;;;;22.45;19.80;;;;;;;14.67;77.48;100347.38;30963992;28;101152;-62
2023/09/10 04:36:53;;;;;;;24.33;20.80;;;;;;;14.69;77.51;100353.34;30963241;28;98214;-63
2023/09/10 04:51:53;;;;;;;27.35;20.65;;;;;;;14.82;77.92;100366.88;30961645;28;97499;-62
2023/09/10 05:06:53;;;;;;;24.60;19.58;;;;;;;15.27;77.46;100368.41;30958432;28;111740;-62
2023/09/10 05:21:53;;;;;;;23.27;19.25;;;;;;;15.61;77.10;100380.19;30955544;28;97236;-62
2023/09/10 05:36:54;;;;;;;21.23;17.30;;;;;;;16.19;76.95;100377.16;30956215;28;103533;-70
2023/09/10 05:51:54;;;;;;;20.40;15.48;;;;;;;17.07;76.74;100378.91;30954723;28;103514;-63
2023/09/10 06:06:55;;;;;;;15.45;13.60;;;;;;;18.12;75.10;100385.25;30954773;28;97100;-66
2023/09/10 06:21:55;;;;;;;14.57;12.95;;;;;;;19.14;73.41;100393.28;30970580;28;96991;-69
2023/09/10 06:36:56;;;;;;;15.68;12.30;;;;;;;20.17;71.28;100412.53;30974576;28;96708;-69
2023/09/10 06:51:56;;;;;;;11.13;9.90;;;;;;;21.23;68.93;100397.63;30971562;28;96854;-69
2023/09/10 07:06:57;;;;;;;10.83;9.63;;;;;;;22.51;66.16;100402.13;30970743;28;97138;-71
2023/09/10 07:21:58;;;;;;;10.73;7.80;;;;;;;23.19;62.19;100407.59;30968884;28;103898;-72
2023/09/10 07:36:58;;;;;;;;;;;;;;;24.31;59.90;100418.28;30968257;28;97328;-67
2023/09/10 07:51:58;;;;;;;8.70;5.88;;;;;;;26.06;56.01;100415.19;30968281;28;97343;-71
2023/09/10 08:07:00;;;;;;;9.27;6.43;;;;;;;27.23;51.30;100405.44;30964509;28;96816;-69
2023/09/10 08:22:01;;;;;;;9.70;6.43;;;;;;;29.08;46.70;100389.09;30961246;28;97107;-64
2023/09/10 08:37:05;;;;;;;6.80;5.00;;;;;;;30.81;42.33;100389.00;30961630;28;97184;-66
2023/09/10 08:52:06;;;;;;;7.97;5.00;;;;;;;36.26;34.07;100388.50;30958997;28;97577;-68
2023/09/10 09:07:11;;;;;;;4.88;3.85;;;;;;;45.79;21.35;100381.19;30957267;28;97304;-70
2023/09/10 09:22:15;;;;;;;4.90;3.70;;;;;;;52.44;16.11;100390.97;30958903;28;97494;-70
2023/09/10 09:37:21;;;;;;;5.17;3.17;;;;;;;56.04;12.85;100380.72;30957614;28;96784;-62
2023/09/10 09:52:22;;;;;;;4.90;2.93;;;;;;;57.53;10.94;100362.44;30966728;28;96771;-65
2023/09/10 10:07:25;;;;;;;6.90;2.72;;;;;;;59.30;9.07;100341.41;30976225;28;97457;-69
2023/09/10 10:22:26;;;;;;;4.10;2.27;;;;;;;-147.20;100.00;63046.97;31257403;28;97434;-63
2023/09/10 10:37:39;;;;;;;4.45;1.95;;;;;;;-147.20;100.00;63046.97;31549872;28;20045;-67
2023/09/10 10:53:02;;;;;;;3.40;2.27;;;;;;;-147.20;100.00;63046.97;31547849;28;20045;-63
2023/09/10 11:08:35;;;;;;;5.43;2.60;;;;;;;-147.20;100.00;63046.97;31545522;28;20037;-66
2023/09/10 11:23:37;;;;;;;4.40;2.40;;;;;;;-147.20;100.00;63046.97;31518139;28;20041;-66
2023/09/10 11:38:38;;;;;;;2.67;2.13;;;;;;;-147.20;100.00;63046.97;31543846;28;20124;-68
2023/09/10 11:53:38;;;;;;;4.43;2.30;;;;;;;-147.20;100.00;63046.97;31542227;28;20041;-68
2023/09/10 12:08:39;;;;;;;6.05;2.40;;;;;;;-147.20;100.00;63046.97;31541184;28;20036;-70
2023/09/10 12:23:39;;;;;;;3.47;2.60;;;;;;;-147.20;100.00;63046.97;31539946;28;20040;-70
2023/09/10 12:38:40;;;;;;;5.60;2.80;;;;;;;-147.20;100.00;63046.97;31539954;28;20052;-69
2023/09/10 12:53:40;;;;;;;3.70;2.65;;;;;;;-147.20;100.00;63046.97;31537235;28;20041;-70
2023/09/10 13:08:40;;;;;;;5.15;2.97;;;;;;;-147.20;100.00;63046.97;31537007;28;20026;-64
2023/09/10 13:23:41;;;;;;;;;;;;;;;-147.20;100.00;63046.97;31534148;28;20032;-69
2023/09/10 13:38:41;;;;;;;5.28;3.08;;;;;;;-147.20;100.00;63046.97;31534534;28;20452;-67
2023/09/10 13:53:43;;;;;;;3.40;2.80;;;;;;;-147.20;100.00;63046.97;31531543;28;20076;-66
2023/09/10 14:08:44;;;;;;;6.63;3.40;;;;;;;-147.20;100.00;63046.97;31530446;28;20112;-70
2023/09/10 14:23:44;;;;;;;7.55;3.85;;;;;;;-147.20;100.00;63046.97;31526095;28;25500;-67
2023/09/10 14:38:45;;;;;;;7.53;3.50;;;;;;;-147.20;100.00;63046.97;31537227;28;20091;-66
2023/09/10 14:53:46;;;;;;;5.47;3.60;;;;;;;-147.20;100.00;63046.97;31547274;28;20485;-70
2023/09/10 15:08:46;;;;;;;5.70;3.70;;;;;;;-147.20;100.00;63046.97;31546825;28;20325;-69
2023/09/10 15:23:46;;;;;;;5.85;3.53;;;;;;;-147.20;100.00;63046.97;31545113;28;20047;-70
2023/09/10 15:38:47;;;;;;;7.13;3.70;;;;;;;-147.20;100.00;63046.97;31544032;28;20087;-63
2023/09/10 15:53:47;;;;;;;7.32;3.72;;;;;;;-147.20;100.00;63046.97;31541613;28;20052;-67
2023/09/10 16:08:48;;;;;;;5.93;4.22;;;;;;;-147.20;100.00;63046.97;31541705;28;20108;-68
2023/09/10 16:23:49;;;;;;;6.03;4.32;;;;;;;-147.20;100.00;63046.97;31539229;28;20049;-63
2023/09/10 16:38:50;;;;;;;6.68;4.20;;;;;;;-147.20;100.00;63046.97;31538646;28;20319;-71
2023/09/10 16:53:50;;;;;;;9.98;5.03;;;;;;;-147.20;100.00;63046.97;31536857;28;20118;-69
2023/09/10 17:08:51;;;;;;;8.50;5.40;;;;;;;-147.20;100.00;63046.97;31534214;28;20037;-63
2023/09/10 17:23:51;;;;;;;15.38;6.28;;;;;;;-147.20;100.00;63046.97;31533370;28;20685;-65
2023/09/10 17:38:51;;;;;;;17.95;9.68;;;;;;;-147.20;100.00;63046.97;31532961;28;20658;-67
2023/09/10 17:53:52;;;;;;;24.80;10.50;;;;;;;-147.20;100.00;63046.97;31531397;28;20053;-65
2023/09/10 18:08:52;;;;;;;15.07;10.88;;;;;;;-147.20;100.00;63046.97;31533772;28;20661;-67
2023/09/10 18:23:53;;;;;;;16.23;9.63;;;;;;;-147.20;100.00;63046.97;31549417;28;20036;-67
2023/09/10 18:38:54;;;;;;;;;;;;;;;-147.20;100.00;63046.97;31549902;28;20060;-67
2023/09/10 18:53:54;;;;;;;15.35;8.23;;;;;;;-147.20;100.00;63046.97;31549081;28;20329;-69
2023/09/10 19:08:54;;;;;;;14.35;8.27;;;;;;;-147.20;100.00;63046.97;31547793;28;20025;-64
2023/09/10 19:23:55;;;;;;;12.20;9.30;;;;;;;-147.20;100.00;63046.97;31544440;28;20107;-68
2023/09/10 19:38:55;;;;;;;15.73;8.95;;;;;;;-147.20;100.00;63046.97;31544495;28;20194;-63
2023/09/10 19:53:56;;;;;;;11.30;8.63;;;;;;;-147.20;100.00;63046.97;31541995;28;20049;-64
2023/09/10 20:08:57;;;;;;;18.30;8.57;;;;;;;-147.20;100.00;63046.97;31539914;28;20040;-72
2023/09/10 20:23:57;;;;;;;13.43;10.67;;;;;;;-147.20;100.00;63046.97;31539862;28;20064;-65
2023/09/10 20:38:57;;;;;;;13.35;10.25;;;;;;;-147.20;100.00;63046.97;31538270;28;20263;-70
2023/09/10 20:53:58;;;;;;;17.65;9.70;;;;;;;-147.20;100.00;63046.97;31538096;28;20052;-69
2023/09/10 21:08:58;;;;;;;12.50;7.65;;;;;;;-147.20;100.00;63046.97;31537869;28;20111;-63
2023/09/10 21:24:01;;;;;;;21.50;9.75;;;;;;;-147.20;100.00;63046.97;31535181;28;20037;-69
2023/09/10 21:39:01;;;;;;;12.77;8.65;;;;;;;-147.20;100.00;63046.97;31535572;28;20036;-67
2023/09/10 21:54:02;;;;;;;17.98;9.85;;;;;;;-147.20;100.00;63046.97;31553423;28;20053;-72
2023/09/10 22:09:02;;;;;;;17.35;9.55;;;;;;;-147.20;100.00;63046.97;31556273;28;20029;-65
2023/09/10 22:24:03;;;;;;;14.50;7.72;;;;;;;-147.20;100.00;63046.97;31554780;28;20100;-66
2023/09/10 22:39:04;;;;;;;20.80;10.05;;;;;;;-147.20;100.00;63046.97;31553919;28;20029;-66
2023/09/10 22:54:04;;;;;;;12.18;8.32;;;;;;;-147.20;100.00;63046.97;31551811;28;20045;-63
2023/09/10 23:09:04;;;;;;;15.73;9.45;;;;;;;-147.20;100.00;63046.97;31550933;28;20029;-69
2023/09/10 23:24:05;;;;;;;12.55;8.88;;;;;;;-147.20;100.00;63046.97;31546930;28;20029;-64
2023/09/10 23:39:06;;;;;;;10.85;8.57;;;;;;;-147.20;100.00;63046.97;31547489;28;20029;-72
2023/09/10 23:54:06;;;;;;;14.77;9.25;;;;;;;-147.20;100.00;63046.97;31545104;28;20085;-72
